createdAt,value
2024-05-09T00:00:18.195Z,1013.52
2024-05-09T00:01:11.853Z,1013.51
2024-05-09T00:02:11.870Z,1013.50
2024-05-09T00:03:12.429Z,1013.51
2024-05-09T00:04:11.935Z,1013.51
2024-05-09T00:05:12.036Z,1013.48
2024-05-09T00:06:12.037Z,1013.48
2024-05-09T00:07:12.012Z,1013.46
2024-05-09T00:08:12.463Z,1013.51
2024-05-09T00:09:12.089Z,1013.48
2024-05-09T00:10:22.062Z,1013.44
2024-05-09T00:11:12.219Z,1013.43
2024-05-09T00:12:12.228Z,1013.43
2024-05-09T00:13:12.199Z,1013.41
2024-05-09T00:14:12.325Z,1013.40
2024-05-09T00:15:12.268Z,1013.37
2024-05-09T00:16:12.283Z,1013.43
2024-05-09T00:17:12.414Z,1013.39
2024-05-09T00:18:12.463Z,1013.39
2024-05-09T00:19:12.547Z,1013.40
2024-05-09T00:20:17.928Z,1013.41
2024-05-09T00:21:12.501Z,1013.42
2024-05-09T00:22:12.464Z,1013.40
2024-05-09T00:23:13.409Z,1013.42
2024-05-09T00:24:12.625Z,1013.41
2024-05-09T00:25:12.600Z,1013.37
2024-05-09T00:26:12.739Z,1013.34
2024-05-09T00:27:13.446Z,1013.33
2024-05-09T00:28:13.074Z,1013.32
2024-05-09T00:29:12.844Z,1013.33
2024-05-09T00:30:17.840Z,1013.33
2024-05-09T00:31:12.802Z,1013.27
2024-05-09T00:32:13.024Z,1013.28
2024-05-09T00:33:13.134Z,1013.29
2024-05-09T00:34:12.995Z,1013.26
2024-05-09T00:35:12.956Z,1013.29
2024-05-09T00:36:13.001Z,1013.27
2024-05-09T00:37:12.997Z,1013.28
2024-05-09T00:38:13.126Z,1013.23
2024-05-09T00:39:13.069Z,1013.27
2024-05-09T00:40:22.415Z,1013.21
2024-05-09T00:41:14.585Z,1013.19
2024-05-09T00:42:13.211Z,1013.21
2024-05-09T00:43:14.519Z,1013.20
2024-05-09T00:44:13.388Z,1013.16
2024-05-09T00:45:13.271Z,1013.18
2024-05-09T00:46:13.332Z,1013.13
2024-05-09T00:47:13.550Z,1013.17
2024-05-09T00:48:16.167Z,1013.14
2024-05-09T00:49:13.484Z,1013.17
2024-05-09T00:50:19.252Z,1013.17
2024-05-09T00:51:13.568Z,1013.17
2024-05-09T00:52:13.516Z,1013.16
2024-05-09T00:53:13.623Z,1013.18
2024-05-09T00:54:13.570Z,1013.13
2024-05-09T00:55:13.608Z,1013.13
2024-05-09T00:56:13.711Z,1013.14
2024-05-09T00:57:13.702Z,1013.15
2024-05-09T00:58:13.706Z,1013.16
2024-05-09T00:59:13.774Z,1013.18
2024-05-09T01:00:22.622Z,1013.14
2024-05-09T01:01:13.842Z,1013.13
2024-05-09T01:02:14.007Z,1013.12
2024-05-09T01:03:14.582Z,1013.11
2024-05-09T01:04:13.981Z,1013.11
2024-05-09T01:05:13.998Z,1013.11
2024-05-09T01:06:13.959Z,1013.11
2024-05-09T01:07:14.016Z,1013.08
2024-05-09T01:08:14.067Z,1013.09
2024-05-09T01:09:14.060Z,1013.09
2024-05-09T01:10:20.933Z,1013.06
2024-05-09T01:11:14.338Z,1013.06
2024-05-09T01:12:14.413Z,1013.06
2024-05-09T01:13:14.268Z,1013.10
2024-05-09T01:14:14.263Z,1013.06
2024-05-09T01:15:14.297Z,1013.03
2024-05-09T01:16:14.319Z,1013.02
2024-05-09T01:17:14.373Z,1013.02
2024-05-09T01:18:14.673Z,1013.02
2024-05-09T01:19:14.761Z,1013.00
2024-05-09T01:20:20.186Z,1013.01
2024-05-09T01:21:14.672Z,1012.96
2024-05-09T01:22:14.505Z,1012.97
2024-05-09T01:23:16.212Z,1012.93
2024-05-09T01:24:14.567Z,1012.94
2024-05-09T01:25:14.618Z,1012.93
2024-05-09T01:26:14.749Z,1012.95
2024-05-09T01:27:14.700Z,1012.91
2024-05-09T01:28:14.721Z,1012.90
2024-05-09T01:29:14.884Z,1012.88
2024-05-09T01:30:20.809Z,1012.92
2024-05-09T01:31:14.806Z,1012.93
2024-05-09T01:32:15.121Z,1012.92
2024-05-09T01:33:15.084Z,1012.96
2024-05-09T01:34:14.995Z,1012.96
2024-05-09T01:35:14.934Z,1012.96
2024-05-09T01:36:15.059Z,1012.95
2024-05-09T01:37:15.033Z,1012.95
2024-05-09T01:38:15.084Z,1012.91
2024-05-09T01:39:15.120Z,1012.90
2024-05-09T01:40:18.719Z,1012.89
2024-05-09T01:41:15.173Z,1012.88
2024-05-09T01:42:15.191Z,1012.81
2024-05-09T01:43:15.224Z,1012.84
2024-05-09T01:44:15.288Z,1012.83
2024-05-09T01:45:15.288Z,1012.79
2024-05-09T01:46:15.328Z,1012.78
2024-05-09T01:47:15.731Z,1012.77
2024-05-09T01:48:15.528Z,1012.76
2024-05-09T01:49:15.605Z,1012.69
2024-05-09T01:50:16.647Z,1012.67
2024-05-09T01:51:15.589Z,1012.67
2024-05-09T01:52:15.517Z,1012.64
2024-05-09T01:53:15.682Z,1012.63
2024-05-09T01:54:15.588Z,1012.62
2024-05-09T01:55:15.601Z,1012.63
2024-05-09T01:56:15.744Z,1012.58
2024-05-09T01:57:15.674Z,1012.60
2024-05-09T01:58:15.758Z,1012.57
2024-05-09T01:59:15.733Z,1012.58
2024-05-09T02:00:22.233Z,1012.53
2024-05-09T02:01:15.823Z,1012.51
2024-05-09T02:02:16.003Z,1012.48
2024-05-09T02:03:17.813Z,1012.49
2024-05-09T02:04:16.698Z,1012.44
2024-05-09T02:05:16.214Z,1012.42
2024-05-09T02:06:16.007Z,1012.40
2024-05-09T02:07:16.003Z,1012.36
2024-05-09T02:08:16.260Z,1012.38
2024-05-09T02:09:16.060Z,1012.37
2024-05-09T02:10:20.503Z,1012.35
2024-05-09T02:11:16.291Z,1012.35
2024-05-09T02:12:16.427Z,1012.32
2024-05-09T02:13:16.808Z,1012.30
2024-05-09T02:14:16.285Z,1012.30
2024-05-09T02:15:16.306Z,1012.25
2024-05-09T02:16:16.299Z,1012.26
2024-05-09T02:17:16.505Z,1012.29
2024-05-09T02:18:16.591Z,1012.26
2024-05-09T02:19:16.666Z,1012.23
2024-05-09T02:20:23.128Z,1012.22
2024-05-09T02:21:16.525Z,1012.21
2024-05-09T02:22:16.461Z,1012.21
2024-05-09T02:23:16.604Z,1012.18
2024-05-09T02:24:16.576Z,1012.16
2024-05-09T02:25:16.598Z,1012.17
2024-05-09T02:26:16.744Z,1012.18
2024-05-09T02:27:16.703Z,1012.16
2024-05-09T02:28:16.680Z,1012.16
2024-05-09T02:29:16.782Z,1012.18
2024-05-09T02:30:25.821Z,1012.19
2024-05-09T02:31:16.803Z,1012.15
2024-05-09T02:32:16.928Z,1012.17
2024-05-09T02:33:16.963Z,1012.15
2024-05-09T02:34:17.040Z,1012.20
2024-05-09T02:35:16.990Z,1012.20
2024-05-09T02:36:17.002Z,1012.19
2024-05-09T02:37:17.012Z,1012.18
2024-05-09T02:38:17.267Z,1012.15
2024-05-09T02:39:17.065Z,1012.19
2024-05-09T02:40:25.210Z,1012.16
2024-05-09T02:41:17.201Z,1012.19
2024-05-09T02:42:17.186Z,1012.17
2024-05-09T02:43:17.205Z,1012.17
2024-05-09T02:44:17.264Z,1012.17
2024-05-09T02:45:17.261Z,1012.15
2024-05-09T02:46:17.299Z,1012.15
2024-05-09T02:47:17.409Z,1012.19
2024-05-09T02:48:17.452Z,1012.16
2024-05-09T02:49:17.540Z,1012.18
2024-05-09T02:50:26.556Z,1012.18
2024-05-09T02:51:17.513Z,1012.16
2024-05-09T02:52:17.500Z,1012.14
2024-05-09T02:53:17.587Z,1012.15
2024-05-09T02:54:17.574Z,1012.13
2024-05-09T02:55:17.594Z,1012.17
2024-05-09T02:56:17.703Z,1012.12
2024-05-09T02:57:17.682Z,1012.10
2024-05-09T02:58:17.699Z,1012.11
2024-05-09T02:59:17.768Z,1012.15
2024-05-09T03:00:22.828Z,1012.17
2024-05-09T03:01:17.895Z,1012.17
2024-05-09T03:02:17.975Z,1012.13
2024-05-09T03:03:18.110Z,1012.17
2024-05-09T03:04:17.946Z,1012.16
2024-05-09T03:05:17.982Z,1012.16
2024-05-09T03:06:17.964Z,1012.16
2024-05-09T03:07:20.068Z,1012.14
2024-05-09T03:08:18.298Z,1012.15
2024-05-09T03:09:18.067Z,1012.11
2024-05-09T03:10:22.566Z,1012.06
2024-05-09T03:11:18.279Z,1012.09
2024-05-09T03:12:18.279Z,1012.07
2024-05-09T03:13:18.202Z,1012.04
2024-05-09T03:14:18.355Z,1012.03
2024-05-09T03:15:18.261Z,1012.05
2024-05-09T03:16:18.306Z,1011.99
2024-05-09T03:17:18.478Z,1011.99
2024-05-09T03:18:18.454Z,1011.99
2024-05-09T03:19:18.609Z,1012.01
2024-05-09T03:20:23.773Z,1012.01
2024-05-09T03:21:18.499Z,1011.98
2024-05-09T03:22:18.494Z,1011.94
2024-05-09T03:23:18.559Z,1011.97
2024-05-09T03:24:18.567Z,1011.96
2024-05-09T03:25:18.607Z,1012.00
2024-05-09T03:26:18.715Z,1012.00
2024-05-09T03:27:18.670Z,1011.98
2024-05-09T03:28:18.719Z,1011.96
2024-05-09T03:29:18.754Z,1011.99
2024-05-09T03:30:26.130Z,1012.00
2024-05-09T03:31:18.816Z,1011.98
2024-05-09T03:32:19.027Z,1011.94
2024-05-09T03:33:20.280Z,1011.93
2024-05-09T03:34:18.959Z,1011.92
2024-05-09T03:35:19.007Z,1011.92
2024-05-09T03:36:18.943Z,1011.93
2024-05-09T03:37:18.992Z,1011.91
2024-05-09T03:38:19.084Z,1011.83
2024-05-09T03:39:19.075Z,1011.85
2024-05-09T03:40:23.615Z,1011.86
2024-05-09T03:41:19.320Z,1011.90
2024-05-09T03:42:19.172Z,1011.85
2024-05-09T03:43:19.357Z,1011.84
2024-05-09T03:44:19.278Z,1011.80
2024-05-09T03:45:19.267Z,1011.78
2024-05-09T03:46:19.330Z,1011.81
2024-05-09T03:47:19.496Z,1011.79
2024-05-09T03:48:19.704Z,1011.78
2024-05-09T03:49:19.676Z,1011.79
2024-05-09T03:50:26.290Z,1011.77
2024-05-09T03:51:19.544Z,1011.74
2024-05-09T03:52:19.503Z,1011.75
2024-05-09T03:53:19.593Z,1011.72
2024-05-09T03:54:19.563Z,1011.72
2024-05-09T03:55:19.613Z,1011.74
2024-05-09T03:56:19.698Z,1011.71
2024-05-09T03:57:19.675Z,1011.68
2024-05-09T03:58:19.747Z,1011.71
2024-05-09T03:59:19.746Z,1011.71
2024-05-09T04:00:30.044Z,1011.68
2024-05-09T04:01:19.837Z,1011.66
2024-05-09T04:02:19.899Z,1011.66
2024-05-09T04:03:20.345Z,1011.66
2024-05-09T04:04:19.962Z,1011.63
2024-05-09T04:05:20.006Z,1011.61
2024-05-09T04:06:20.021Z,1011.58
2024-05-09T04:07:19.992Z,1011.61
2024-05-09T04:08:20.249Z,1011.58
2024-05-09T04:09:20.098Z,1011.53
2024-05-09T04:10:27.751Z,1011.56
2024-05-09T04:11:20.232Z,1011.51
2024-05-09T04:12:20.273Z,1011.50
2024-05-09T04:13:20.203Z,1011.46
2024-05-09T04:14:20.338Z,1011.47
2024-05-09T04:15:20.275Z,1011.46
2024-05-09T04:16:20.322Z,1011.41
2024-05-09T04:17:20.447Z,1011.43
2024-05-09T04:18:20.452Z,1011.37
2024-05-09T04:19:20.566Z,1011.42
2024-05-09T04:20:29.077Z,1011.40
2024-05-09T04:21:20.459Z,1011.34
2024-05-09T04:22:20.496Z,1011.35
2024-05-09T04:23:20.582Z,1011.34
2024-05-09T04:24:20.519Z,1011.34
2024-05-09T04:25:20.635Z,1011.41
2024-05-09T04:26:20.618Z,1011.34
2024-05-09T04:27:20.655Z,1011.38
2024-05-09T04:28:20.706Z,1011.38
2024-05-09T04:29:20.818Z,1011.35
2024-05-09T04:30:26.507Z,1011.35
2024-05-09T04:31:20.795Z,1011.36
2024-05-09T04:32:20.954Z,1011.39
2024-05-09T04:33:21.109Z,1011.43
2024-05-09T04:34:21.024Z,1011.43
2024-05-09T04:35:21.059Z,1011.39
2024-05-09T04:36:20.962Z,1011.36
2024-05-09T04:37:21.016Z,1011.34
2024-05-09T04:38:21.053Z,1011.31
2024-05-09T04:39:21.073Z,1011.32
2024-05-09T04:40:28.520Z,1011.35
2024-05-09T04:41:21.144Z,1011.34
2024-05-09T04:42:21.176Z,1011.29
2024-05-09T04:43:21.185Z,1011.29
2024-05-09T04:44:21.284Z,1011.34
2024-05-09T04:45:21.276Z,1011.30
2024-05-09T04:46:21.290Z,1011.31
2024-05-09T04:47:21.614Z,1011.30
2024-05-09T04:48:21.826Z,1011.28
2024-05-09T04:49:21.714Z,1011.26
2024-05-09T04:50:29.982Z,1011.25
2024-05-09T04:51:21.457Z,1011.28
2024-05-09T04:52:21.492Z,1011.25
2024-05-09T04:53:21.581Z,1011.24
2024-05-09T04:54:33.441Z,1011.20
2024-05-09T04:55:21.597Z,1011.17
2024-05-09T04:56:21.674Z,1011.15
2024-05-09T04:57:21.662Z,1011.16
2024-05-09T04:58:21.688Z,1011.18
2024-05-09T04:59:21.905Z,1011.17
2024-05-09T05:00:28.907Z,1011.15
2024-05-09T05:01:21.784Z,1011.16
2024-05-09T05:02:21.996Z,1011.06
2024-05-09T05:03:22.237Z,1011.08
2024-05-09T05:04:21.949Z,1011.04
2024-05-09T05:05:21.956Z,1011.07
2024-05-09T05:06:21.976Z,1011.02
2024-05-09T05:07:22.031Z,1011.01
2024-05-09T05:08:22.097Z,1010.96
2024-05-09T05:09:22.067Z,1010.99
2024-05-09T05:10:29.512Z,1010.98
2024-05-09T05:11:22.260Z,1010.97
2024-05-09T05:12:22.303Z,1010.98
2024-05-09T05:13:23.405Z,1010.97
2024-05-09T05:14:22.294Z,1010.97
2024-05-09T05:15:22.269Z,1010.95
2024-05-09T05:16:22.283Z,1010.93
2024-05-09T05:17:22.378Z,1010.94
2024-05-09T05:18:22.525Z,1010.92
2024-05-09T05:19:22.501Z,1010.93
2024-05-09T05:20:30.393Z,1010.90
2024-05-09T05:21:22.631Z,1010.90
2024-05-09T05:22:22.458Z,1010.90
2024-05-09T05:23:22.632Z,1010.89
2024-05-09T05:24:22.567Z,1010.91
2024-05-09T05:25:22.585Z,1010.92
2024-05-09T05:26:22.663Z,1010.93
2024-05-09T05:27:22.656Z,1010.91
2024-05-09T05:28:22.698Z,1010.87
2024-05-09T05:29:22.794Z,1010.85
2024-05-09T05:30:28.781Z,1010.85
2024-05-09T05:31:22.961Z,1010.88
2024-05-09T05:32:22.951Z,1010.86
2024-05-09T05:33:23.590Z,1010.85
2024-05-09T05:34:22.890Z,1010.82
2024-05-09T05:35:23.017Z,1010.80
2024-05-09T05:36:22.969Z,1010.81
2024-05-09T05:37:23.012Z,1010.81
2024-05-09T05:38:26.261Z,1010.80
2024-05-09T05:39:23.054Z,1010.79
2024-05-09T05:40:32.153Z,1010.82
2024-05-09T05:41:23.224Z,1010.82
2024-05-09T05:42:23.166Z,1010.78
2024-05-09T05:43:23.192Z,1010.78
2024-05-09T05:44:23.279Z,1010.74
2024-05-09T05:45:23.264Z,1010.71
2024-05-09T05:46:23.257Z,1010.74
2024-05-09T05:47:23.401Z,1010.71
2024-05-09T05:48:23.631Z,1010.71
2024-05-09T05:49:23.561Z,1010.72
2024-05-09T05:50:28.100Z,1010.75
2024-05-09T05:51:23.534Z,1010.72
2024-05-09T05:52:23.527Z,1010.75
2024-05-09T05:53:23.578Z,1010.74
2024-05-09T05:54:23.575Z,1010.75
2024-05-09T05:55:23.590Z,1010.74
2024-05-09T05:56:23.721Z,1010.69
2024-05-09T05:57:23.656Z,1010.66
2024-05-09T05:58:23.685Z,1010.68
2024-05-09T05:59:23.775Z,1010.66
2024-05-09T06:00:29.518Z,1010.64
2024-05-09T06:01:23.827Z,1010.64
2024-05-09T06:02:23.862Z,1010.63
2024-05-09T06:03:23.885Z,1010.64
2024-05-09T06:04:23.933Z,1010.63
2024-05-09T06:05:25.997Z,1010.62
2024-05-09T06:06:23.962Z,1010.59
2024-05-09T06:07:24.034Z,1010.61
2024-05-09T06:08:26.196Z,1010.58
2024-05-09T06:09:24.059Z,1010.57
2024-05-09T06:10:26.481Z,1010.55
2024-05-09T06:11:24.196Z,1010.53
2024-05-09T06:12:24.307Z,1010.54
2024-05-09T06:13:24.194Z,1010.52
2024-05-09T06:14:24.361Z,1010.54
2024-05-09T06:15:24.253Z,1010.50
2024-05-09T06:16:24.316Z,1010.51
2024-05-09T06:17:24.600Z,1010.53
2024-05-09T06:18:24.740Z,1010.50
2024-05-09T06:19:24.664Z,1010.50
2024-05-09T06:20:33.978Z,1010.51
2024-05-09T06:21:24.502Z,1010.51
2024-05-09T06:22:24.515Z,1010.48
2024-05-09T06:23:24.588Z,1010.48
2024-05-09T06:24:24.570Z,1010.49
2024-05-09T06:25:24.594Z,1010.48
2024-05-09T06:26:24.633Z,1010.46
2024-05-09T06:27:24.652Z,1010.45
2024-05-09T06:28:24.695Z,1010.46
2024-05-09T06:29:24.740Z,1010.43
2024-05-09T06:30:30.427Z,1010.45
2024-05-09T06:31:24.800Z,1010.48
2024-05-09T06:32:25.061Z,1010.49
2024-05-09T06:33:25.105Z,1010.46
2024-05-09T06:34:25.089Z,1010.49
2024-05-09T06:35:24.970Z,1010.49
2024-05-09T06:36:24.949Z,1010.44
2024-05-09T06:37:24.978Z,1010.45
2024-05-09T06:38:25.068Z,1010.42
2024-05-09T06:39:25.092Z,1010.45
2024-05-09T06:40:29.748Z,1010.43
2024-05-09T06:41:25.168Z,1010.39
2024-05-09T06:42:25.147Z,1010.37
2024-05-09T06:43:25.189Z,1010.37
2024-05-09T06:44:25.265Z,1010.37
2024-05-09T06:45:25.291Z,1010.34
2024-05-09T06:46:25.288Z,1010.35
2024-05-09T06:47:25.464Z,1010.35
2024-05-09T06:48:25.456Z,1010.30
2024-05-09T06:49:25.532Z,1010.26
2024-05-09T06:50:28.374Z,1010.26
2024-05-09T06:51:25.495Z,1010.31
2024-05-09T06:52:25.485Z,1010.31
2024-05-09T06:53:25.566Z,1010.26
2024-05-09T06:54:25.568Z,1010.27
2024-05-09T06:55:25.591Z,1010.25
2024-05-09T06:56:25.708Z,1010.16
2024-05-09T06:57:25.648Z,1010.16
2024-05-09T06:58:25.925Z,1010.14
2024-05-09T06:59:25.792Z,1010.09
2024-05-09T07:00:34.565Z,1010.09
2024-05-09T07:01:25.840Z,1010.09
2024-05-09T07:02:25.864Z,1010.08
2024-05-09T07:03:25.967Z,1010.07
2024-05-09T07:04:26.042Z,1010.05
2024-05-09T07:05:26.182Z,1010.04
2024-05-09T07:06:25.955Z,1010.06
2024-05-09T07:07:25.989Z,1010.03
2024-05-09T07:08:26.034Z,1010.02
2024-05-09T07:09:26.059Z,1010.00
2024-05-09T07:10:32.790Z,1010.00
2024-05-09T07:11:26.276Z,1009.99
2024-05-09T07:12:26.378Z,1010.00
2024-05-09T07:13:26.179Z,1010.01
2024-05-09T07:14:26.318Z,1009.96
2024-05-09T07:15:26.249Z,1009.95
2024-05-09T07:16:26.287Z,1009.93
2024-05-09T07:17:26.481Z,1009.94
2024-05-09T07:18:26.627Z,1009.94
2024-05-09T07:19:26.453Z,1009.93
2024-05-09T07:20:34.024Z,1009.94
2024-05-09T07:21:26.601Z,1009.91
2024-05-09T07:22:26.480Z,1009.89
2024-05-09T07:23:26.593Z,1009.91
2024-05-09T07:24:26.550Z,1009.85
2024-05-09T07:25:26.579Z,1009.86
2024-05-09T07:26:26.651Z,1009.85
2024-05-09T07:27:26.652Z,1009.83
2024-05-09T07:28:26.698Z,1009.79
2024-05-09T07:29:26.887Z,1009.78
2024-05-09T07:30:32.885Z,1009.78
2024-05-09T07:31:26.791Z,1009.81
2024-05-09T07:32:27.200Z,1009.76
2024-05-09T07:33:27.255Z,1009.76
2024-05-09T07:34:27.002Z,1009.76
2024-05-09T07:35:27.257Z,1009.77
2024-05-09T07:36:26.984Z,1009.74
2024-05-09T07:37:26.982Z,1009.72
2024-05-09T07:38:27.101Z,1009.71
2024-05-09T07:39:27.071Z,1009.66
2024-05-09T07:40:32.895Z,1009.66
2024-05-09T07:41:27.245Z,1009.62
2024-05-09T07:42:27.175Z,1009.59
2024-05-09T07:43:27.228Z,1009.56
2024-05-09T07:44:27.302Z,1009.55
2024-05-09T07:45:44.943Z,1009.53
2024-05-09T07:47:14.602Z,1009.55
2024-05-09T07:50:00.309Z,1009.50
2024-05-09T07:53:39.756Z,1009.45
2024-05-09T07:54:27.705Z,1009.42
2024-05-09T07:55:27.981Z,1009.40
2024-05-09T07:56:28.113Z,1009.42
2024-05-09T07:57:27.699Z,1009.40
2024-05-09T07:58:28.006Z,1009.36
2024-05-09T07:59:27.722Z,1009.35
2024-05-09T08:00:31.475Z,1009.34
2024-05-09T08:01:27.943Z,1009.30
2024-05-09T08:02:27.994Z,1009.27
2024-05-09T08:03:28.091Z,1009.31
2024-05-09T08:04:27.988Z,1009.27
2024-05-09T08:05:28.205Z,1009.25
2024-05-09T08:06:28.063Z,1009.22
2024-05-09T08:07:28.011Z,1009.19
2024-05-09T08:08:28.026Z,1009.15
2024-05-09T08:09:28.060Z,1009.11
2024-05-09T08:10:29.222Z,1009.08
2024-05-09T08:11:28.160Z,1009.09
2024-05-09T08:12:28.231Z,1009.03
2024-05-09T08:13:28.202Z,1009.01
2024-05-09T08:14:28.239Z,1009.03
2024-05-09T08:15:28.479Z,1008.99
2024-05-09T08:16:28.416Z,1008.95
2024-05-09T08:17:28.454Z,1008.89
2024-05-09T08:18:28.588Z,1008.85
2024-05-09T08:19:28.440Z,1008.80
2024-05-09T08:20:33.469Z,1008.79
2024-05-09T08:21:28.495Z,1008.78
2024-05-09T08:22:28.487Z,1008.75
2024-05-09T08:23:28.561Z,1008.76
2024-05-09T08:24:28.638Z,1008.77
2024-05-09T08:25:28.631Z,1008.72
2024-05-09T08:26:28.630Z,1008.68
2024-05-09T08:27:28.726Z,1008.65
2024-05-09T08:28:28.718Z,1008.65
2024-05-09T08:29:28.729Z,1008.62
2024-05-09T08:30:33.381Z,1008.63
2024-05-09T08:31:28.852Z,1008.55
2024-05-09T08:32:28.900Z,1008.56
2024-05-09T08:33:29.037Z,1008.55
2024-05-09T08:34:29.024Z,1008.52
2024-05-09T08:35:28.918Z,1008.51
2024-05-09T08:36:28.995Z,1008.55
2024-05-09T08:37:32.856Z,1008.56
2024-05-09T08:38:29.031Z,1008.59
2024-05-09T08:39:29.114Z,1008.58
2024-05-09T08:40:34.451Z,1008.56
2024-05-09T08:41:29.111Z,1008.53
2024-05-09T08:42:29.199Z,1008.50
2024-05-09T08:43:29.273Z,1008.51
2024-05-09T08:44:29.222Z,1008.48
2024-05-09T08:45:29.304Z,1008.46
2024-05-09T08:46:29.553Z,1008.49
2024-05-09T08:47:29.436Z,1008.47
2024-05-09T08:48:29.804Z,1008.46
2024-05-09T08:49:29.638Z,1008.44
2024-05-09T08:50:36.562Z,1008.46
2024-05-09T08:51:29.638Z,1008.46
2024-05-09T08:52:29.477Z,1008.46
2024-05-09T08:53:29.527Z,1008.46
2024-05-09T08:54:29.579Z,1008.39
2024-05-09T08:55:29.582Z,1008.36
2024-05-09T08:56:29.623Z,1008.41
2024-05-09T08:57:29.689Z,1008.33
2024-05-09T08:58:29.682Z,1008.34
2024-05-09T08:59:29.704Z,1008.34
2024-05-09T09:00:36.296Z,1008.31
2024-05-09T09:01:29.847Z,1008.33
2024-05-09T09:02:29.921Z,1008.31
2024-05-09T09:03:30.199Z,1008.26
2024-05-09T09:04:30.162Z,1008.25
2024-05-09T09:05:30.064Z,1008.27
2024-05-09T09:06:29.985Z,1008.30
2024-05-09T09:07:30.156Z,1008.26
2024-05-09T09:08:30.019Z,1008.25
2024-05-09T09:09:30.142Z,1008.27
2024-05-09T09:10:32.353Z,1008.29
2024-05-09T09:11:30.135Z,1008.26
2024-05-09T09:12:30.187Z,1008.26
2024-05-09T09:13:30.174Z,1008.28
2024-05-09T09:14:30.217Z,1008.28
2024-05-09T09:15:30.338Z,1008.24
2024-05-09T09:16:30.292Z,1008.19
2024-05-09T09:17:30.373Z,1008.11
2024-05-09T09:18:30.935Z,1008.13
2024-05-09T09:19:30.419Z,1008.13
2024-05-09T09:20:36.361Z,1008.08
2024-05-09T09:21:30.469Z,1008.04
2024-05-09T09:22:30.479Z,1008.00
2024-05-09T09:23:30.860Z,1008.05
2024-05-09T09:24:30.560Z,1008.01
2024-05-09T09:25:30.614Z,1007.94
2024-05-09T09:26:30.608Z,1007.94
2024-05-09T09:27:30.693Z,1007.90
2024-05-09T09:28:30.683Z,1007.93
2024-05-09T09:29:30.702Z,1007.86
2024-05-09T09:30:36.520Z,1007.83
2024-05-09T09:31:31.035Z,1007.81
2024-05-09T09:32:30.832Z,1007.81
2024-05-09T09:33:30.984Z,1007.78
2024-05-09T09:34:31.436Z,1007.78
2024-05-09T09:35:30.926Z,1007.78
2024-05-09T09:36:31.074Z,1007.83
2024-05-09T09:37:30.990Z,1007.73
2024-05-09T09:38:31.027Z,1007.71
2024-05-09T09:39:31.148Z,1007.68
2024-05-09T09:40:33.039Z,1007.64
2024-05-09T09:41:31.118Z,1007.63
2024-05-09T09:42:31.174Z,1007.62
2024-05-09T09:43:31.188Z,1007.66
2024-05-09T09:44:31.218Z,1007.60
2024-05-09T09:45:31.296Z,1007.64
2024-05-09T09:46:31.418Z,1007.63
2024-05-09T09:47:31.535Z,1007.57
2024-05-09T09:48:32.523Z,1007.64
2024-05-09T09:49:31.422Z,1007.69
2024-05-09T09:50:34.564Z,1007.65
2024-05-09T09:51:31.495Z,1007.58
2024-05-09T09:52:31.564Z,1007.57
2024-05-09T09:53:31.517Z,1007.60
2024-05-09T09:54:31.555Z,1007.51
2024-05-09T09:55:31.597Z,1007.52
2024-05-09T09:56:31.618Z,1007.52
2024-05-09T09:57:31.701Z,1007.52
2024-05-09T09:58:31.850Z,1007.57
2024-05-09T09:59:31.735Z,1007.61
2024-05-09T10:00:33.520Z,1007.53
2024-05-09T10:01:31.889Z,1007.54
2024-05-09T10:02:32.033Z,1007.55
2024-05-09T10:03:31.990Z,1007.56
2024-05-09T10:04:31.919Z,1007.62
2024-05-09T10:05:32.142Z,1007.54
2024-05-09T10:06:31.964Z,1007.52
2024-05-09T10:07:31.932Z,1007.52
2024-05-09T10:08:32.062Z,1007.55
2024-05-09T10:09:32.125Z,1007.54
2024-05-09T10:10:33.233Z,1007.49
2024-05-09T10:11:34.872Z,1007.41
2024-05-09T10:12:32.237Z,1007.45
2024-05-09T10:13:32.253Z,1007.45
2024-05-09T10:14:32.223Z,1007.41
2024-05-09T10:15:32.288Z,1007.40
2024-05-09T10:16:32.440Z,1007.41
2024-05-09T10:17:32.380Z,1007.41
2024-05-09T10:18:34.209Z,1007.40
2024-05-09T10:19:32.458Z,1007.35
2024-05-09T10:20:33.033Z,1007.39
2024-05-09T10:21:32.509Z,1007.36
2024-05-09T10:22:32.515Z,1007.33
2024-05-09T10:23:32.762Z,1007.35
2024-05-09T10:24:32.631Z,1007.32
2024-05-09T10:25:32.694Z,1007.30
2024-05-09T10:26:32.614Z,1007.28
2024-05-09T10:27:32.782Z,1007.29
2024-05-09T10:28:32.866Z,1007.27
2024-05-09T10:29:32.728Z,1007.26
2024-05-09T10:30:36.007Z,1007.22
2024-05-09T10:31:32.888Z,1007.20
2024-05-09T10:32:33.025Z,1007.17
2024-05-09T10:33:32.986Z,1007.16
2024-05-09T10:34:33.049Z,1007.17
2024-05-09T10:35:32.921Z,1007.15
2024-05-09T10:36:33.004Z,1007.19
2024-05-09T10:37:33.043Z,1007.16
2024-05-09T10:38:33.030Z,1007.12
2024-05-09T10:39:33.075Z,1007.12
2024-05-09T10:40:33.300Z,1007.12
2024-05-09T10:41:33.141Z,1007.08
2024-05-09T10:42:33.178Z,1007.03
2024-05-09T10:43:33.178Z,1007.06
2024-05-09T10:44:33.217Z,1007.02
2024-05-09T10:45:33.292Z,1007.07
2024-05-09T10:46:33.284Z,1007.07
2024-05-09T10:47:33.419Z,1007.05
2024-05-09T10:48:33.424Z,1007.05
2024-05-09T10:49:33.477Z,1007.04
2024-05-09T10:50:34.560Z,1007.02
2024-05-09T10:51:33.478Z,1007.01
2024-05-09T10:52:33.484Z,1006.94
2024-05-09T10:53:33.508Z,1006.95
2024-05-09T10:54:33.572Z,1006.90
2024-05-09T10:55:33.645Z,1006.88
2024-05-09T10:56:33.628Z,1006.84
2024-05-09T10:57:33.735Z,1006.81
2024-05-09T10:58:33.675Z,1006.78
2024-05-09T10:59:33.703Z,1006.71
2024-05-09T11:00:36.255Z,1006.71
2024-05-09T11:01:33.847Z,1006.62
2024-05-09T11:02:33.941Z,1006.64
2024-05-09T11:03:34.192Z,1006.61
2024-05-09T11:04:34.133Z,1006.62
2024-05-09T11:05:34.158Z,1006.62
2024-05-09T11:06:33.950Z,1006.60
2024-05-09T11:07:34.097Z,1006.65
2024-05-09T11:08:34.063Z,1006.60
2024-05-09T11:09:34.107Z,1006.63
2024-05-09T11:10:34.750Z,1006.56
2024-05-09T11:11:34.174Z,1006.53
2024-05-09T11:12:34.226Z,1006.48
2024-05-09T11:13:34.213Z,1006.47
2024-05-09T11:14:34.210Z,1006.44
2024-05-09T11:15:34.311Z,1006.39
2024-05-09T11:16:34.271Z,1006.42
2024-05-09T11:17:34.363Z,1006.40
2024-05-09T11:18:37.899Z,1006.35
2024-05-09T11:19:34.445Z,1006.38
2024-05-09T11:20:35.351Z,1006.34
2024-05-09T11:21:34.483Z,1006.30
2024-05-09T11:22:34.484Z,1006.26
2024-05-09T11:23:34.500Z,1006.26
2024-05-09T11:24:34.562Z,1006.22
2024-05-09T11:25:34.564Z,1006.23
2024-05-09T11:26:34.609Z,1006.19
2024-05-09T11:27:34.691Z,1006.19
2024-05-09T11:28:34.714Z,1006.25
2024-05-09T11:29:34.749Z,1006.28
2024-05-09T11:30:34.838Z,1006.24
2024-05-09T11:31:34.858Z,1006.19
2024-05-09T11:32:34.907Z,1006.24
2024-05-09T11:33:34.929Z,1006.21
2024-05-09T11:34:34.911Z,1006.15
2024-05-09T11:35:34.905Z,1006.19
2024-05-09T11:36:35.020Z,1006.18
2024-05-09T11:37:37.165Z,1006.15
2024-05-09T11:38:35.031Z,1006.17
2024-05-09T11:39:35.067Z,1006.19
2024-05-09T11:40:35.176Z,1006.13
2024-05-09T11:41:35.116Z,1006.14
2024-05-09T11:42:35.174Z,1006.15
2024-05-09T11:43:35.262Z,1006.09
2024-05-09T11:44:35.255Z,1006.10
2024-05-09T11:45:35.291Z,1006.05
2024-05-09T11:46:35.279Z,1006.04
2024-05-09T11:47:35.395Z,1006.01
2024-05-09T11:48:35.574Z,1005.94
2024-05-09T11:49:35.460Z,1005.96
2024-05-09T11:50:36.316Z,1005.99
2024-05-09T11:51:35.513Z,1005.96
2024-05-09T11:52:35.471Z,1005.97
2024-05-09T11:53:35.506Z,1005.92
2024-05-09T11:54:35.589Z,1005.94
2024-05-09T11:55:35.653Z,1005.93
2024-05-09T11:56:35.606Z,1005.88
2024-05-09T11:57:35.690Z,1005.84
2024-05-09T11:58:35.674Z,1005.85
2024-05-09T11:59:35.736Z,1005.81
2024-05-09T12:00:37.601Z,1005.80
2024-05-09T12:01:35.874Z,1005.73
2024-05-09T12:02:35.896Z,1005.77
2024-05-09T12:03:35.896Z,1005.80
2024-05-09T12:04:36.100Z,1005.85
2024-05-09T12:05:36.068Z,1005.79
2024-05-09T12:06:36.039Z,1005.78
2024-05-09T12:07:35.985Z,1005.79
2024-05-09T12:08:36.031Z,1005.75
2024-05-09T12:09:36.054Z,1005.74
2024-05-09T12:10:37.000Z,1005.70